Time;durP1;ratioP1;P1;durP2;ratioP2;P2;SDS_P1;SDS_P2;PMS_P1;PMS_P2;Temp;Humidity;BMP_temperature;BMP_pressure;BME280_temperature;BME280_humidity;BME280_pressure;Samples;Min_cycle;Max_cycle;Signal;HPM_P1;HPM_P2
2022/10/10 00:00:52;;;;;;;7.00;6.33;;;11.50;99.90;;;;;;4926174;29;20287;-80
2022/10/10 00:03:19;;;;;;;13.30;12.20;;;11.50;99.90;;;;;;4925487;29;20205;-80
2022/10/10 00:05:48;;;;;;;10.83;9.83;;;11.50;99.90;;;;;;4929867;29;20219;-80
2022/10/10 00:08:15;;;;;;;10.43;9.53;;;11.50;99.90;;;;;;4932500;28;20201;-80
2022/10/10 00:10:41;;;;;;;9.50;8.50;;;11.50;99.90;;;;;;4923012;29;20582;-80
2022/10/10 00:13:08;;;;;;;11.80;10.70;;;11.50;99.90;;;;;;4923890;29;20212;-80
2022/10/10 00:15:35;;;;;;;11.47;10.37;;;11.60;99.90;;;;;;4951262;28;20644;-81
2022/10/10 00:18:03;;;;;;;11.23;10.13;;;11.60;99.90;;;;;;4953162;28;20572;-80
2022/10/10 00:20:29;;;;;;;8.77;7.63;;;11.60;99.90;;;;;;4945565;28;20211;-81
2022/10/10 00:22:58;;;;;;;11.00;9.90;;;11.60;99.90;;;;;;4929705;29;20679;-80
2022/10/10 00:25:25;;;;;;;11.57;7.70;;;11.60;99.90;;;;;;4950364;28;20216;-80
2022/10/10 00:27:51;;;;;;;9.50;6.70;;;11.60;99.90;;;;;;4949943;29;20196;-81
2022/10/10 00:30:19;;;;;;;8.77;7.27;;;11.70;99.90;;;;;;4932141;29;20471;-80
2022/10/10 00:32:46;;;;;;;7.23;6.20;;;11.70;99.90;;;;;;4922232;29;20213;-80
2022/10/10 00:35:13;;;;;;;10.60;9.70;;;11.60;99.90;;;;;;4923528;29;20258;-80
2022/10/10 00:37:40;;;;;;;7.47;6.37;;;11.60;99.90;;;;;;4928981;29;20248;-79
2022/10/10 00:40:11;;;;;;;7.67;5.93;;;11.60;99.90;;;;;;4948001;28;20262;-80
2022/10/10 00:42:38;;;;;;;10.73;6.70;;;11.60;99.90;;;;;;4929888;29;20433;-80
2022/10/10 00:45:24;;;;;;;7.60;6.60;;;11.50;99.90;;;;;;4947761;28;20735;-80
2022/10/10 00:47:56;;;;;;;11.20;9.63;;;11.50;99.90;;;;;;4929948;29;20253;-80
2022/10/10 00:50:24;;;;;;;9.37;7.60;;;11.50;99.90;;;;;;4949577;28;20230;-79
2022/10/10 00:52:52;;;;;;;7.60;6.80;;;11.50;99.90;;;;;;4946925;29;20198;-80
2022/10/10 00:55:20;;;;;;;10.60;9.50;;;11.50;99.90;;;;;;4948962;28;20228;-80
2022/10/10 00:57:48;;;;;;;9.80;7.40;;;11.50;99.90;;;;;;4945958;28;20732;-80
2022/10/10 01:00:15;;;;;;;14.13;12.80;;;11.40;99.90;;;;;;4924863;29;20221;-80
2022/10/10 01:02:42;;;;;;;10.63;9.73;;;11.40;99.90;;;;;;4927849;29;20201;-80
2022/10/10 01:05:09;;;;;;;8.80;7.93;;;11.50;99.90;;;;;;4947176;28;20273;-80
2022/10/10 01:07:36;;;;;;;8.70;7.90;;;11.50;99.90;;;;;;4948170;28;20201;-80
2022/10/10 01:10:07;;;;;;;9.20;8.33;;;11.40;99.90;;;;;;4946613;29;20201;-80
2022/10/10 01:12:45;;;;;;;8.53;7.73;;;11.40;99.90;;;;;;4948484;28;20196;-80
2022/10/10 01:15:21;;;;;;;7.50;6.53;;;11.40;99.90;;;;;;4947586;28;20227;-80
2022/10/10 01:17:53;;;;;;;9.27;6.57;;;11.40;99.90;;;;;;4930978;29;20208;-80
2022/10/10 01:20:59;;;;;;;7.10;6.37;;;11.40;99.90;;;;;;4924807;29;20701;-80
2022/10/10 01:23:46;;;;;;;7.90;7.10;;;11.40;99.90;;;;;;4929596;29;20216;-80
2022/10/10 01:26:34;;;;;;;6.97;6.27;;;11.40;99.90;;;;;;4947575;28;20232;-80
2022/10/10 01:29:09;;;;;;;8.03;6.97;;;11.40;99.90;;;;;;4930293;29;20296;-80
2022/10/10 01:31:42;;;;;;;7.93;6.93;;;11.40;99.90;;;;;;4924018;29;20201;-80
2022/10/10 01:34:17;;;;;;;9.37;7.03;;;11.50;99.90;;;;;;4937650;29;20208;-80
2022/10/10 01:36:51;;;;;;;9.27;7.10;;;11.40;99.90;;;;;;4933965;29;20254;-80
2022/10/10 01:39:23;;;;;;;7.60;6.60;;;11.40;99.90;;;;;;4948959;28;20207;-80
2022/10/10 01:41:55;;;;;;;7.97;7.07;;;11.40;99.90;;;;;;4948478;28;20284;-80
2022/10/10 01:44:24;;;;;;;7.93;7.13;;;11.40;99.90;;;;;;4926853;29;20219;-80
2022/10/10 01:46:51;;;;;;;7.23;6.20;;;11.40;99.90;;;;;;4925488;29;20269;-80
2022/10/10 01:49:18;;;;;;;7.83;6.13;;;11.40;99.90;;;;;;4923195;29;20208;-80
2022/10/10 01:51:57;;;;;;;10.03;7.17;;;11.50;99.90;;;;;;4929650;28;20675;-80
2022/10/10 01:54:35;;;;;;;8.67;7.43;;;11.40;99.90;;;;;;4922258;28;20200;-80
2022/10/10 01:57:16;;;;;;;7.00;6.30;;;11.40;99.90;;;;;;4946114;29;20220;-79
2022/10/10 01:59:53;;;;;;;6.80;6.20;;;11.40;99.90;;;;;;4945960;28;20201;-80
2022/10/10 02:02:28;;;;;;;10.03;9.13;;;11.40;99.90;;;;;;4948790;29;20193;-80
2022/10/10 02:05:01;;;;;;;12.33;11.33;;;11.40;99.90;;;;;;4921397;29;20197;-80
2022/10/10 02:07:33;;;;;;;12.87;11.87;;;11.30;99.90;;;;;;4931149;29;20332;-80
2022/10/10 02:10:04;;;;;;;11.87;10.80;;;11.30;99.90;;;;;;4925573;29;20220;-80
2022/10/10 02:12:32;;;;;;;12.53;11.53;;;11.20;99.90;;;;;;4922552;29;20220;-80
2022/10/10 02:15:07;;;;;;;13.43;12.33;;;11.20;99.90;;;;;;4937965;28;20201;-80
2022/10/10 02:17:37;;;;;;;12.93;11.93;;;11.20;99.90;;;;;;4928805;29;20208;-80
2022/10/10 02:20:07;;;;;;;14.30;13.13;;;11.20;99.90;;;;;;4931785;29;20229;-79
2022/10/10 02:22:35;;;;;;;14.13;13.03;;;11.20;99.90;;;;;;4928893;28;20223;-80
2022/10/10 02:25:02;;;;;;;15.53;14.17;;;11.30;99.90;;;;;;4946859;29;20336;-80
2022/10/10 02:27:35;;;;;;;13.33;12.27;;;11.30;99.90;;;;;;4946734;28;20197;-79
2022/10/10 02:30:05;;;;;;;13.10;11.87;;;11.30;99.90;;;;;;4922322;29;20216;-79
2022/10/10 02:32:36;;;;;;;13.70;12.50;;;11.30;99.90;;;;;;4949419;28;20261;-80
2022/10/10 02:35:08;;;;;;;13.10;12.00;;;11.30;99.90;;;;;;4924758;29;20214;-80
2022/10/10 02:37:37;;;;;;;13.70;12.40;;;11.30;99.90;;;;;;4928365;29;20303;-81
2022/10/10 02:40:07;;;;;;;13.20;12.20;;;11.30;99.90;;;;;;4922973;29;20209;-80
2022/10/10 02:42:35;;;;;;;13.03;11.93;;;11.30;99.90;;;;;;4929123;29;20201;-80
2022/10/10 02:45:05;;;;;;;12.40;11.40;;;11.30;99.90;;;;;;4923229;29;20204;-80
2022/10/10 02:47:32;;;;;;;13.40;12.37;;;11.30;99.90;;;;;;4951553;29;20258;-80
2022/10/10 02:49:59;;;;;;;13.40;12.40;;;11.30;99.90;;;;;;4931321;29;20206;-81
2022/10/10 02:52:26;;;;;;;12.77;11.87;;;11.30;99.90;;;;;;4949262;28;20194;-80
2022/10/10 02:54:53;;;;;;;12.87;11.90;;;11.30;99.90;;;;;;4954895;29;20196;-82
2022/10/10 02:57:19;;;;;;;12.20;11.30;;;11.40;99.90;;;;;;4926689;29;20226;-81
2022/10/10 02:59:46;;;;;;;13.60;12.40;;;11.30;99.90;;;;;;4924936;29;20229;-81
2022/10/10 03:02:15;;;;;;;13.67;12.57;;;11.30;99.90;;;;;;4920348;29;20222;-81
2022/10/10 03:04:43;;;;;;;12.87;11.87;;;11.30;99.90;;;;;;4937253;29;20209;-80
2022/10/10 03:07:10;;;;;;;13.60;12.53;;;11.40;99.90;;;;;;4921746;29;20256;-80
2022/10/10 03:09:37;;;;;;;13.97;12.80;;;11.40;99.90;;;;;;4937233;29;20205;-81
2022/10/10 03:12:04;;;;;;;13.77;12.67;;;11.40;99.90;;;;;;4920041;29;20212;-81
2022/10/10 03:14:31;;;;;;;12.57;11.67;;;11.40;99.90;;;;;;4925523;29;20687;-81
2022/10/10 03:16:59;;;;;;;13.40;12.27;;;11.40;99.90;;;;;;4934499;29;20589;-79
2022/10/10 03:19:27;;;;;;;13.53;12.53;;;11.50;99.90;;;;;;4950268;29;20610;-78
2022/10/10 03:21:54;;;;;;;13.70;12.70;;;11.40;99.90;;;;;;4933355;29;20283;-81
2022/10/10 03:24:21;;;;;;;14.40;13.30;;;11.50;99.90;;;;;;4934538;29;20209;-81
2022/10/10 03:26:48;;;;;;;13.60;12.60;;;11.50;99.90;;;;;;4927724;28;20282;-81
2022/10/10 03:29:14;;;;;;;13.60;12.50;;;11.50;99.90;;;;;;4919400;29;20204;-80
2022/10/10 03:31:41;;;;;;;14.43;13.13;;;11.50;99.90;;;;;;4920232;29;20193;-80
2022/10/10 03:34:08;;;;;;;14.90;13.73;;;11.50;99.90;;;;;;4931254;29;20221;-80
2022/10/10 03:36:36;;;;;;;13.97;12.97;;;11.50;99.90;;;;;;4943979;28;20275;-80
2022/10/10 03:39:04;;;;;;;15.60;14.40;;;11.50;99.90;;;;;;4925405;29;20201;-80
2022/10/10 03:41:31;;;;;;;15.00;13.70;;;11.50;99.90;;;;;;4930014;29;20216;-80
2022/10/10 03:43:58;;;;;;;14.77;13.60;;;11.50;99.90;;;;;;4926486;29;20206;-80
2022/10/10 03:46:25;;;;;;;15.03;13.93;;;11.50;99.90;;;;;;4924592;28;20320;-80
2022/10/10 03:48:52;;;;;;;14.60;13.60;;;11.50;99.90;;;;;;4948518;29;20253;-80
2022/10/10 03:51:19;;;;;;;14.10;13.10;;;11.50;99.90;;;;;;4940400;29;20201;-81
2022/10/10 03:53:47;;;;;;;15.03;13.87;;;11.50;99.90;;;;;;4940936;29;20193;-80
2022/10/10 03:56:14;;;;;;;15.30;14.20;;;11.40;99.90;;;;;;4923172;29;20589;-80
2022/10/10 03:58:41;;;;;;;16.00;14.80;;;11.40;99.90;;;;;;4940476;29;20206;-80
2022/10/10 04:01:08;;;;;;;15.83;14.53;;;11.40;99.90;;;;;;4923138;29;20246;-80
2022/10/10 04:03:35;;;;;;;15.10;14.00;;;11.40;99.90;;;;;;4928250;29;20195;-80
2022/10/10 04:06:02;;;;;;;14.70;13.70;;;11.40;99.90;;;;;;4922554;29;20237;-80
2022/10/10 04:08:29;;;;;;;15.13;13.93;;;11.40;99.90;;;;;;4940193;28;20202;-80
2022/10/10 04:10:58;;;;;;;16.27;14.90;;;11.40;99.90;;;;;;4930342;29;20296;-80
2022/10/10 04:13:26;;;;;;;16.70;15.50;;;11.40;99.90;;;;;;4948834;28;20286;-80
2022/10/10 04:15:57;;;;;;;16.30;15.00;;;11.40;99.90;;;;;;4930450;29;20220;-79
2022/10/10 04:18:25;;;;;;;16.67;15.27;;;11.40;99.90;;;;;;4928042;29;20209;-80
2022/10/10 04:21:03;;;;;;;15.30;14.20;;;11.40;99.90;;;;;;4925293;29;20222;-80
2022/10/10 04:23:34;;;;;;;15.47;14.27;;;11.40;99.90;;;;;;4936213;29;20259;-81
2022/10/10 04:26:06;;;;;;;17.07;15.73;;;11.30;99.90;;;;;;4932691;29;20228;-80
2022/10/10 04:28:33;;;;;;;16.90;15.50;;;11.30;99.90;;;;;;4939737;29;20201;-80
2022/10/10 04:31:00;;;;;;;15.90;14.77;;;11.30;99.90;;;;;;4939781;28;20209;-80
2022/10/10 04:33:27;;;;;;;16.77;15.57;;;11.30;99.90;;;;;;4951267;28;20198;-80
2022/10/10 04:35:54;;;;;;;16.23;15.03;;;11.20;99.90;;;;;;4925171;29;20238;-80
2022/10/10 04:38:21;;;;;;;15.33;14.23;;;11.20;99.90;;;;;;4925398;28;20207;-80
2022/10/10 04:40:49;;;;;;;16.57;15.30;;;11.20;99.90;;;;;;4933525;29;20232;-80
2022/10/10 04:43:23;;;;;;;15.93;14.67;;;11.20;99.90;;;;;;4958609;28;20195;-80
2022/10/10 04:45:50;;;;;;;15.80;14.70;;;11.20;99.90;;;;;;4941214;29;20225;-80
2022/10/10 04:48:17;;;;;;;16.00;14.90;;;11.10;99.90;;;;;;4959018;29;20211;-80
2022/10/10 04:50:44;;;;;;;16.57;15.17;;;11.10;99.90;;;;;;4934898;28;20197;-81
2022/10/10 04:53:11;;;;;;;16.30;15.10;;;11.00;99.90;;;;;;4931345;29;20212;-80
2022/10/10 04:55:38;;;;;;;16.00;14.80;;;11.10;99.90;;;;;;4938236;29;20733;-80
2022/10/10 04:58:05;;;;;;;16.87;15.40;;;11.10;99.90;;;;;;4947890;29;20602;-80
2022/10/10 05:00:34;;;;;;;16.90;15.60;;;11.00;99.90;;;;;;4929742;29;20737;-80
2022/10/10 05:03:01;;;;;;;17.60;16.17;;;11.00;99.90;;;;;;4930266;29;20248;-80
2022/10/10 05:05:28;;;;;;;17.33;16.07;;;11.00;99.90;;;;;;4930053;29;20226;-80
2022/10/10 05:07:55;;;;;;;17.67;16.27;;;10.90;99.90;;;;;;4925156;29;20244;-80
2022/10/10 05:10:21;;;;;;;16.03;14.93;;;10.90;99.90;;;;;;4924033;29;20208;-81
2022/10/10 05:12:48;;;;;;;17.27;15.87;;;10.90;99.90;;;;;;4932360;29;20207;-81
2022/10/10 05:15:16;;;;;;;17.10;15.80;;;10.80;99.90;;;;;;4947184;28;20214;-81
2022/10/10 05:17:45;;;;;;;17.57;16.07;;;10.90;99.90;;;;;;4921951;29;20208;-80
2022/10/10 05:20:11;;;;;;;16.43;15.23;;;10.90;99.90;;;;;;4938750;29;20207;-80
2022/10/10 05:22:39;;;;;;;17.57;16.27;;;10.90;99.90;;;;;;4937193;29;20224;-80
2022/10/10 05:25:07;;;;;;;15.70;14.60;;;10.90;99.90;;;;;;4928144;29;20208;-80
2022/10/10 05:27:34;;;;;;;16.07;14.93;;;11.00;99.90;;;;;;4939687;29;20211;-80
2022/10/10 05:30:01;;;;;;;17.80;16.40;;;11.00;99.90;;;;;;4950233;28;20206;-80
2022/10/10 05:32:28;;;;;;;17.00;15.70;;;11.00;99.90;;;;;;4924012;29;20203;-79
2022/10/10 05:34:56;;;;;;;15.87;14.57;;;11.00;99.90;;;;;;4949662;28;20199;-78
2022/10/10 05:37:23;;;;;;;17.00;15.70;;;11.00;99.90;;;;;;4931304;29;20230;-79
2022/10/10 05:39:59;;;;;;;16.07;14.97;;;11.10;99.90;;;;;;4949779;28;20273;-79
2022/10/10 05:42:34;;;;;;;16.07;14.87;;;11.10;99.90;;;;;;4925934;29;20214;-79
2022/10/10 05:45:10;;;;;;;16.53;15.30;;;11.20;99.90;;;;;;4926034;29;20207;-79
2022/10/10 05:47:44;;;;;;;16.47;15.37;;;11.30;99.90;;;;;;4922472;29;20296;-79
2022/10/10 05:50:27;;;;;;;16.67;15.53;;;11.30;99.90;;;;;;4929175;28;20562;-79
2022/10/10 05:52:56;;;;;;;16.80;15.60;;;11.40;99.90;;;;;;4921197;29;20383;-80
2022/10/10 05:55:23;;;;;;;16.70;15.47;;;11.40;99.90;;;;;;4930709;29;20226;-79
2022/10/10 05:57:51;;;;;;;17.17;15.90;;;11.40;99.90;;;;;;4928979;29;20197;-79
2022/10/10 06:00:19;;;;;;;15.87;14.53;;;11.50;99.90;;;;;;4945198;28;20224;-80
2022/10/10 06:02:46;;;;;;;16.33;15.13;;;11.50;99.90;;;;;;4929171;29;20217;-79
2022/10/10 06:05:14;;;;;;;14.80;13.80;;;11.50;99.90;;;;;;4951712;28;20287;-79
2022/10/10 06:07:43;;;;;;;15.40;14.10;;;11.50;99.90;;;;;;4925343;29;20233;-79
2022/10/10 06:10:10;;;;;;;16.07;14.90;;;11.60;99.90;;;;;;4929781;29;20212;-79
2022/10/10 06:12:38;;;;;;;16.20;15.10;;;11.60;99.90;;;;;;4930665;28;20651;-80
2022/10/10 06:15:06;;;;;;;14.90;13.87;;;11.70;99.90;;;;;;4936426;29;20283;-80
2022/10/10 06:17:34;;;;;;;15.33;14.20;;;11.70;99.90;;;;;;4949511;28;20262;-79
2022/10/10 06:20:01;;;;;;;15.03;14.03;;;11.80;99.90;;;;;;4948980;29;20581;-80
2022/10/10 06:22:33;;;;;;;15.17;13.97;;;11.80;99.90;;;;;;4938223;29;20225;-80
2022/10/10 06:25:00;;;;;;;15.40;14.20;;;11.90;99.90;;;;;;4945084;29;20671;-80
2022/10/10 06:27:27;;;;;;;15.10;14.00;;;11.90;99.90;;;;;;4949036;28;20203;-80
2022/10/10 06:29:53;;;;;;;14.53;13.53;;;12.00;99.90;;;;;;4923113;29;20202;-79
2022/10/10 06:32:20;;;;;;;15.10;14.00;;;12.00;99.90;;;;;;4948001;28;20200;-80
2022/10/10 06:34:47;;;;;;;14.97;13.77;;;12.10;99.90;;;;;;4949662;28;20679;-80
2022/10/10 06:37:14;;;;;;;15.10;14.00;;;12.20;99.90;;;;;;4928584;29;20308;-80
2022/10/10 06:39:42;;;;;;;15.70;14.60;;;12.30;99.90;;;;;;4947967;28;20624;-80
2022/10/10 06:42:09;;;;;;;7.23;6.30;;;12.30;99.90;;;;;;4946919;29;20210;-79
2022/10/10 06:44:36;;;;;;;15.17;14.07;;;12.40;99.90;;;;;;4947861;28;20597;-79
2022/10/10 06:47:03;;;;;;;14.80;13.80;;;12.50;99.90;;;;;;4923278;29;20607;-80
2022/10/10 06:49:30;;;;;;;16.60;15.50;;;12.60;99.90;;;;;;4949077;28;20198;-80
2022/10/10 06:51:57;;;;;;;14.83;13.87;;;12.70;99.90;;;;;;4924831;29;20599;-79
2022/10/10 06:54:23;;;;;;;14.33;13.30;;;12.80;99.90;;;;;;4948575;28;20205;-80
2022/10/10 06:56:52;;;;;;;14.23;13.23;;;13.00;99.90;;;;;;4928886;28;20282;-80
2022/10/10 06:59:18;;;;;;;14.50;13.30;;;13.00;99.90;;;;;;4922556;29;20214;-80
2022/10/10 07:01:45;;;;;;;14.00;13.00;;;13.10;99.90;;;;;;4929018;29;20568;-80
2022/10/10 07:04:13;;;;;;;13.83;12.90;;;13.10;99.90;;;;;;4924305;29;20294;-80
2022/10/10 07:06:40;;;;;;;6.10;5.50;;;13.20;99.90;;;;;;4951343;28;20226;-80
2022/10/10 07:09:07;;;;;;;6.93;5.60;;;13.20;99.90;;;;;;4929072;29;20202;-80
2022/10/10 07:11:34;;;;;;;5.83;5.23;;;13.20;99.90;;;;;;4932063;29;20611;-80
2022/10/10 07:14:02;;;;;;;6.20;5.33;;;13.30;99.90;;;;;;4929412;29;20284;-80
2022/10/10 07:16:29;;;;;;;6.70;5.50;;;13.30;99.90;;;;;;4935591;29;20243;-80
2022/10/10 07:18:56;;;;;;;6.30;5.70;;;13.30;99.90;;;;;;4952880;28;20202;-80
2022/10/10 07:21:23;;;;;;;13.43;12.53;;;13.30;99.90;;;;;;4947672;29;20704;-80
2022/10/10 07:23:50;;;;;;;12.57;11.67;;;13.30;99.90;;;;;;4953608;29;20221;-80
2022/10/10 07:26:21;;;;;;;13.67;12.77;;;13.30;99.90;;;;;;4926780;29;20232;-79
2022/10/10 07:28:48;;;;;;;12.07;11.17;;;13.40;99.90;;;;;;4952144;28;20209;-80
2022/10/10 07:31:16;;;;;;;10.30;9.50;;;13.40;99.90;;;;;;4947865;28;20259;-79
2022/10/10 07:33:45;;;;;;;10.40;9.50;;;13.50;99.90;;;;;;4931984;28;20234;-80
2022/10/10 07:36:12;;;;;;;12.73;11.83;;;13.50;99.90;;;;;;4949760;29;20222;-80
2022/10/10 07:38:40;;;;;;;15.20;12.73;;;13.60;99.90;;;;;;4949353;28;20589;-80
2022/10/10 07:41:07;;;;;;;13.53;12.63;;;13.60;99.90;;;;;;4949257;28;20588;-80
2022/10/10 07:43:36;;;;;;;5.70;5.10;;;13.70;99.90;;;;;;4923862;29;20225;-79
2022/10/10 07:46:02;;;;;;;6.30;5.70;;;13.80;99.90;;;;;;4952003;28;20228;-79
2022/10/10 07:48:31;;;;;;;13.80;12.63;;;13.80;99.90;;;;;;4925755;29;20208;-79
2022/10/10 07:50:59;;;;;;;13.37;12.47;;;13.80;99.90;;;;;;4924380;29;20637;-81
2022/10/10 07:53:25;;;;;;;6.73;6.03;;;13.90;99.90;;;;;;4933015;29;20288;-82
2022/10/10 07:55:52;;;;;;;6.33;5.53;;;13.90;99.90;;;;;;4928259;29;20235;-82
2022/10/10 07:58:19;;;;;;;13.33;12.27;;;13.90;99.90;;;;;;4926701;29;20199;-80
2022/10/10 08:00:46;;;;;;;12.97;11.97;;;13.80;99.90;;;;;;4934827;29;20215;-80
2022/10/10 08:03:13;;;;;;;13.80;12.70;;;13.80;99.90;;;;;;4944369;29;20216;-81
2022/10/10 08:05:42;;;;;;;10.60;9.70;;;13.80;99.90;;;;;;4924826;29;20226;-80
2022/10/10 08:08:10;;;;;;;6.13;5.13;;;13.80;99.90;;;;;;4926383;29;20203;-80
2022/10/10 08:10:37;;;;;;;12.73;11.73;;;13.90;99.90;;;;;;4940219;29;20204;-80
2022/10/10 08:13:04;;;;;;;13.67;12.67;;;13.90;99.90;;;;;;4942048;29;20200;-80
2022/10/10 08:15:31;;;;;;;11.40;10.60;;;14.00;99.90;;;;;;4946415;29;20224;-81
2022/10/10 08:17:58;;;;;;;12.37;11.40;;;14.10;99.90;;;;;;4935320;29;20240;-80
2022/10/10 08:20:25;;;;;;;13.50;12.60;;;14.20;99.90;;;;;;4946588;29;20191;-81
2022/10/10 08:22:53;;;;;;;13.50;12.60;;;14.30;99.90;;;;;;4941692;29;20226;-82
2022/10/10 08:25:20;;;;;;;13.43;12.40;;;14.50;99.90;;;;;;4944038;29;20301;-81
2022/10/10 08:27:47;;;;;;;13.30;12.40;;;14.60;99.90;;;;;;4938862;29;20212;-82
2022/10/10 08:30:14;;;;;;;6.87;5.70;;;14.60;99.90;;;;;;4938356;29;20201;-81
2022/10/10 08:32:41;;;;;;;6.83;5.67;;;14.60;99.90;;;;;;4935218;29;21871;-82
2022/10/10 08:35:08;;;;;;;6.13;5.53;;;14.70;99.90;;;;;;4924416;29;20207;-82
2022/10/10 08:37:35;;;;;;;12.53;11.63;;;14.70;99.90;;;;;;4946338;29;20603;-81
2022/10/10 08:40:04;;;;;;;6.00;5.30;;;14.60;99.90;;;;;;4923415;29;20245;-81
2022/10/10 08:42:34;;;;;;;13.53;12.63;;;14.70;99.90;;;;;;4945053;29;20207;-82
2022/10/10 08:45:04;;;;;;;13.13;12.33;;;14.70;99.90;;;;;;4944075;29;20209;-81
2022/10/10 08:47:39;;;;;;;13.33;12.33;;;14.70;99.90;;;;;;4943818;29;20193;-81
2022/10/10 08:50:11;;;;;;;12.80;11.90;;;14.70;99.90;;;;;;4944591;29;20261;-81
2022/10/10 08:52:41;;;;;;;13.93;12.73;;;14.80;99.90;;;;;;4945033;29;20553;-81
2022/10/10 08:55:16;;;;;;;15.30;14.40;;;14.90;99.90;;;;;;4947495;29;20209;-81
2022/10/10 08:57:51;;;;;;;12.33;11.43;;;14.90;99.90;;;;;;4933473;29;20209;-82
2022/10/10 09:00:21;;;;;;;12.50;11.27;;;15.10;99.90;;;;;;4924556;29;20208;-81
2022/10/10 09:02:51;;;;;;;6.80;6.07;;;15.10;99.90;;;;;;4949804;28;20282;-82
2022/10/10 09:05:24;;;;;;;7.87;6.00;;;15.20;99.90;;;;;;4926724;29;20232;-81
2022/10/10 09:08:08;;;;;;;11.60;10.60;;;15.20;99.90;;;;;;4944121;28;20669;-81
2022/10/10 09:10:44;;;;;;;12.73;11.80;;;15.30;99.90;;;;;;4929525;29;20667;-81
2022/10/10 09:13:24;;;;;;;13.87;12.97;;;15.40;99.90;;;;;;4948165;28;20206;-82
2022/10/10 09:15:56;;;;;;;14.00;13.10;;;15.50;99.90;;;;;;4929436;29;20231;-82
2022/10/10 09:18:34;;;;;;;15.80;14.07;;;15.50;99.90;;;;;;4923420;28;20202;-82
2022/10/10 09:21:11;;;;;;;9.37;6.00;;;15.60;99.90;;;;;;4921388;29;20274;-82
2022/10/10 09:23:44;;;;;;;13.53;12.40;;;15.50;99.90;;;;;;4933567;29;20306;-82
2022/10/10 09:26:15;;;;;;;10.70;9.10;;;15.60;99.90;;;;;;4931204;29;20242;-83
2022/10/10 09:28:48;;;;;;;8.53;5.90;;;15.80;99.90;;;;;;4927454;29;20206;-84
2022/10/10 09:31:18;;;;;;;11.57;10.67;;;15.90;99.90;;;;;;4932759;29;20203;-84
2022/10/10 09:33:51;;;;;;;14.77;9.03;;;16.00;99.90;;;;;;4930407;29;20205;-84
2022/10/10 09:36:24;;;;;;;8.20;5.70;;;16.00;99.90;;;;;;4927168;29;20227;-82
2022/10/10 09:38:56;;;;;;;6.17;5.57;;;15.90;99.90;;;;;;4926016;29;20238;-83
2022/10/10 09:41:33;;;;;;;5.60;5.03;;;15.90;99.90;;;;;;4920078;29;20209;-81
2022/10/10 09:44:04;;;;;;;10.87;9.97;;;15.90;99.90;;;;;;4937448;29;20255;-81
2022/10/10 09:46:31;;;;;;;5.90;5.33;;;15.80;99.90;;;;;;4933126;29;20404;-81
2022/10/10 09:48:58;;;;;;;6.73;5.00;;;15.80;99.90;;;;;;4936733;29;20564;-80
2022/10/10 09:51:25;;;;;;;5.40;4.90;;;15.80;99.90;;;;;;4937420;29;20229;-81
2022/10/10 09:53:52;;;;;;;7.57;5.07;;;15.90;99.90;;;;;;4937105;29;20195;-82
2022/10/10 09:56:21;;;;;;;10.73;9.93;;;15.90;99.90;;;;;;4923699;29;20218;-81
2022/10/10 09:58:51;;;;;;;10.83;9.93;;;16.00;99.90;;;;;;4944401;29;20202;-81
2022/10/10 10:01:20;;;;;;;11.73;10.83;;;16.20;99.90;;;;;;4936157;29;20203;-81
2022/10/10 10:04:11;;;;;;;11.27;10.37;;;16.30;99.90;;;;;;4918476;29;20647;-80
2022/10/10 10:06:39;;;;;;;13.57;12.53;;;16.50;99.90;;;;;;4934910;29;20233;-81
2022/10/10 10:09:07;;;;;;;10.03;9.23;;;16.70;99.90;;;;;;4938211;29;20210;-81
2022/10/10 10:11:38;;;;;;;9.33;5.40;;;16.90;99.90;;;;;;4942712;28;20711;-81
2022/10/10 10:14:06;;;;;;;7.87;7.03;;;17.00;99.90;;;;;;4936725;29;20204;-81
2022/10/10 10:16:34;;;;;;;10.33;8.13;;;17.00;99.90;;;;;;4919026;29;20242;-79
2022/10/10 10:19:01;;;;;;;9.50;6.07;;;17.10;99.90;;;;;;4937937;28;20200;-80
2022/10/10 10:21:29;;;;;;;10.10;9.20;;;17.10;99.90;;;;;;4934223;29;20262;-79
2022/10/10 10:23:58;;;;;;;9.17;8.27;;;17.40;99.90;;;;;;4918816;29;20226;-79
2022/10/10 10:26:29;;;;;;;7.50;6.70;;;17.50;99.90;;;;;;4918999;29;20222;-79
2022/10/10 10:28:57;;;;;;;6.73;5.27;;;17.50;99.90;;;;;;4918993;29;20219;-79
2022/10/10 10:31:52;;;;;;;5.90;4.67;;;17.40;99.90;;;;;;4936501;29;20206;-81
2022/10/10 10:34:33;;;;;;;5.17;4.47;;;17.30;99.90;;;;;;4919054;29;20703;-80
2022/10/10 10:37:11;;;;;;;6.63;4.50;;;17.40;99.90;;;;;;4936293;29;20290;-79
2022/10/10 10:39:47;;;;;;;4.93;4.40;;;17.30;99.90;;;;;;4920858;29;20199;-78
2022/10/10 10:42:29;;;;;;;10.13;7.40;;;17.40;99.90;;;;;;4918432;29;20203;-79
2022/10/10 10:45:04;;;;;;;8.63;7.83;;;17.40;99.90;;;;;;4921975;29;20588;-80
2022/10/10 10:47:44;;;;;;;11.07;10.27;;;17.40;99.90;;;;;;4931299;29;20595;-80
2022/10/10 10:50:30;;;;;;;11.17;10.20;;;17.60;99.90;;;;;;4932871;29;20253;-80
2022/10/10 10:53:02;;;;;;;11.50;9.30;;;18.00;99.90;;;;;;4921042;29;20216;-80
2022/10/10 10:55:37;;;;;;;12.20;11.20;;;18.20;99.90;;;;;;4918432;29;20713;-80
2022/10/10 10:58:25;;;;;;;11.77;10.87;;;18.30;99.90;;;;;;4936392;29;20215;-80
2022/10/10 11:00:56;;;;;;;11.70;10.90;;;18.50;99.90;;;;;;4945416;28;20210;-79
2022/10/10 11:03:43;;;;;;;11.87;10.80;;;18.80;99.90;;;;;;4922147;29;20231;-79
2022/10/10 11:06:23;;;;;;;12.87;11.63;;;18.90;99.90;;;;;;4928106;29;20229;-80
2022/10/10 11:09:01;;;;;;;8.17;7.40;;;19.10;99.90;;;;;;4919285;29;20206;-83
2022/10/10 11:11:46;;;;;;;12.53;11.57;;;19.10;99.90;;;;;;4944099;28;20202;-80
2022/10/10 11:14:24;;;;;;;6.67;5.47;;;19.30;99.90;;;;;;4923106;29;20206;-80
2022/10/10 11:16:55;;;;;;;10.30;9.40;;;19.40;99.90;;;;;;4929359;29;20246;-80
2022/10/10 11:19:31;;;;;;;11.93;11.00;;;19.40;99.90;;;;;;4928495;29;20217;-80
2022/10/10 11:22:05;;;;;;;7.47;5.33;;;19.50;99.90;;;;;;4922281;29;20388;-81
2022/10/10 11:24:40;;;;;;;6.93;4.60;;;19.60;99.90;;;;;;4926361;29;20606;-80
2022/10/10 11:27:14;;;;;;;4.90;4.00;;;19.60;99.90;;;;;;4925390;29;20234;-80
2022/10/10 11:29:55;;;;;;;11.17;10.37;;;19.60;99.90;;;;;;4925581;29;20235;-80
2022/10/10 11:32:27;;;;;;;8.57;5.20;;;19.60;99.90;;;;;;4921462;29;21261;-80
2022/10/10 11:35:06;;;;;;;7.53;4.30;;;19.60;99.90;;;;;;4946561;28;20209;-80
2022/10/10 11:37:40;;;;;;;9.60;8.80;;;19.60;99.90;;;;;;4943468;28;20241;-80
2022/10/10 11:40:27;;;;;;;11.40;10.47;;;19.60;99.90;;;;;;4941382;28;20203;-79
2022/10/10 11:42:59;;;;;;;12.10;10.90;;;19.60;99.90;;;;;;4924338;29;20206;-79
2022/10/10 11:45:30;;;;;;;11.10;10.07;;;19.70;99.90;;;;;;4943985;28;20754;-80
2022/10/10 11:48:05;;;;;;;11.40;10.50;;;19.70;99.90;;;;;;4926652;28;20211;-81
2022/10/10 11:50:39;;;;;;;11.30;10.37;;;19.60;99.90;;;;;;4926112;28;20203;-80
2022/10/10 11:53:14;;;;;;;5.10;3.63;;;19.70;99.90;;;;;;4921346;29;20198;-80
2022/10/10 11:55:45;;;;;;;10.60;3.93;;;19.70;99.90;;;;;;4927713;29;20232;-80
2022/10/10 11:58:35;;;;;;;5.50;4.07;;;19.70;99.90;;;;;;4925043;29;20210;-81
2022/10/10 12:01:13;;;;;;;9.17;3.93;;;19.80;99.90;;;;;;4950186;28;20608;-80
2022/10/10 12:03:40;;;;;;;7.90;3.90;;;19.80;99.90;;;;;;4934195;29;20232;-80
2022/10/10 12:06:17;;;;;;;4.73;3.60;;;19.80;99.90;;;;;;4948392;28;20237;-77
2022/10/10 12:08:49;;;;;;;5.73;3.33;;;19.80;99.90;;;;;;4923436;29;20206;-79
2022/10/10 12:11:22;;;;;;;8.63;4.50;;;19.90;99.90;;;;;;4947224;28;20210;-77
2022/10/10 12:13:54;;;;;;;5.20;3.57;;;19.90;99.90;;;;;;4944285;28;20638;-79
2022/10/10 12:16:25;;;;;;;5.43;3.40;;;19.90;99.90;;;;;;4921183;28;20222;-79
2022/10/10 12:18:55;;;;;;;8.43;4.07;;;19.90;99.90;;;;;;4920626;28;20212;-80
2022/10/10 12:21:25;;;;;;;8.67;7.77;;;20.00;99.90;;;;;;4945948;29;20198;-80
2022/10/10 12:24:03;;;;;;;7.13;3.33;;;20.00;99.90;;;;;;4920740;29;20285;-80
2022/10/10 12:27:05;;;;;;;4.80;3.20;;;20.00;99.90;;;;;;4928292;29;20614;-79
2022/10/10 12:29:44;;;;;;;7.03;4.23;;;20.00;99.90;;;;;;4916839;29;20239;-80
2022/10/10 12:32:24;;;;;;;8.90;4.00;;;20.00;99.90;;;;;;4941153;28;20199;-79
2022/10/10 12:35:00;;;;;;;5.90;3.80;;;20.10;99.90;;;;;;4925256;29;20201;-82
2022/10/10 12:37:30;;;;;;;9.03;4.60;;;20.10;99.90;;;;;;4927959;29;20236;-83
2022/10/10 12:40:19;;;;;;;16.27;6.43;;;20.20;99.90;;;;;;4928191;29;20274;-80
2022/10/10 12:43:20;;;;;;;10.90;8.57;;;20.20;99.90;;;;;;4927922;29;20307;-78
2022/10/10 12:45:58;;;;;;;10.63;9.83;;;20.20;99.90;;;;;;4933908;29;20221;-80
2022/10/10 12:48:25;;;;;;;11.10;10.10;;;20.30;99.90;;;;;;4928425;28;20664;-80
2022/10/10 12:50:58;;;;;;;12.57;10.17;;;20.30;99.90;;;;;;4945241;28;20191;-81